createdAt,value
2023-02-02T00:01:24.806Z,3.40
2023-02-02T00:03:52.900Z,3.65
2023-02-02T00:06:21.052Z,2.43
2023-02-02T00:08:48.655Z,2.65
2023-02-02T00:11:16.283Z,3.10
2023-02-02T00:13:43.939Z,3.30
2023-02-02T00:16:26.473Z,3.30
2023-02-02T00:18:54.628Z,3.50
2023-02-02T00:21:22.701Z,2.83
2023-02-02T00:23:50.093Z,3.42
2023-02-02T00:26:17.474Z,3.75
2023-02-02T00:28:44.663Z,3.53
2023-02-02T00:31:12.032Z,3.92
2023-02-02T00:33:39.291Z,4.15
2023-02-02T00:36:06.953Z,4.95
2023-02-02T00:38:34.759Z,3.72
2023-02-02T00:41:02.175Z,4.00
2023-02-02T00:43:29.401Z,4.10
2023-02-02T00:45:57.088Z,4.40
2023-02-02T00:48:25.956Z,4.40
2023-02-02T00:50:53.916Z,3.80
2023-02-02T00:53:21.381Z,4.18
2023-02-02T00:55:48.794Z,3.75
2023-02-02T00:58:16.013Z,3.80
2023-02-02T01:00:43.521Z,3.55
2023-02-02T01:03:13.140Z,3.40
2023-02-02T01:05:40.354Z,3.70
2023-02-02T01:08:07.765Z,3.38
2023-02-02T01:10:35.439Z,3.13
2023-02-02T01:13:02.562Z,2.90
2023-02-02T01:15:30.659Z,3.08
2023-02-02T01:17:58.315Z,2.30
2023-02-02T01:20:25.933Z,2.72
2023-02-02T01:22:53.136Z,2.85
2023-02-02T01:25:20.306Z,2.70
2023-02-02T01:27:47.404Z,2.90
2023-02-02T01:30:14.667Z,2.50
2023-02-02T01:32:41.773Z,3.22
2023-02-02T01:35:10.319Z,2.90
2023-02-02T01:37:38.725Z,2.50
2023-02-02T01:40:06.974Z,2.65
2023-02-02T01:42:34.402Z,2.63
2023-02-02T01:45:01.829Z,2.35
2023-02-02T01:47:31.242Z,2.70
2023-02-02T01:49:59.012Z,2.47
2023-02-02T01:52:29.017Z,2.75
2023-02-02T01:54:59.247Z,2.75
2023-02-02T01:57:29.800Z,2.70
2023-02-02T01:59:57.566Z,3.03
2023-02-02T02:02:25.735Z,2.92
2023-02-02T02:04:54.053Z,3.10
2023-02-02T02:07:21.652Z,2.95
2023-02-02T02:09:48.920Z,2.55
2023-02-02T02:12:16.047Z,2.95
2023-02-02T02:15:03.820Z,3.10
2023-02-02T02:17:31.246Z,3.17
2023-02-02T02:20:35.078Z,2.83
2023-02-02T02:23:29.690Z,3.00
2023-02-02T02:26:15.277Z,3.33
2023-02-02T02:28:42.425Z,3.45
2023-02-02T02:31:18.692Z,3.80
2023-02-02T02:33:45.873Z,3.00
2023-02-02T02:36:39.088Z,3.28
2023-02-02T02:39:27.616Z,3.30
2023-02-02T02:41:58.628Z,3.40
2023-02-02T02:44:27.609Z,3.33
2023-02-02T02:46:54.989Z,3.40
2023-02-02T02:49:22.436Z,2.88
2023-02-02T02:51:53.986Z,3.20
2023-02-02T02:54:24.365Z,2.90
2023-02-02T02:56:51.760Z,3.20
2023-02-02T02:59:19.027Z,3.60
2023-02-02T03:01:55.827Z,3.53
2023-02-02T03:04:32.358Z,3.22
2023-02-02T03:06:59.475Z,2.75
2023-02-02T03:09:30.218Z,2.80
2023-02-02T03:11:57.632Z,3.22
2023-02-02T03:14:24.791Z,2.53
2023-02-02T03:16:52.785Z,2.60
2023-02-02T03:19:19.979Z,2.40
2023-02-02T03:21:47.283Z,2.42
2023-02-02T03:24:14.429Z,2.45
2023-02-02T03:26:41.550Z,2.53
2023-02-02T03:29:09.001Z,2.13
2023-02-02T03:31:36.499Z,2.55
2023-02-02T03:34:03.646Z,1.90
2023-02-02T03:36:30.835Z,2.05
2023-02-02T03:38:58.014Z,2.20
2023-02-02T03:41:25.126Z,2.00
2023-02-02T03:43:52.281Z,1.90
2023-02-02T03:46:19.474Z,2.10
2023-02-02T03:48:46.623Z,1.80
2023-02-02T03:51:14.986Z,1.98
2023-02-02T03:53:47.532Z,2.05
2023-02-02T03:56:15.324Z,2.22
2023-02-02T03:58:43.581Z,2.25
2023-02-02T04:01:12.195Z,2.03
2023-02-02T04:03:39.422Z,1.50
2023-02-02T04:06:06.978Z,2.00
2023-02-02T04:08:34.594Z,1.90
2023-02-02T04:11:02.568Z,1.50
2023-02-02T04:13:29.931Z,1.75
2023-02-02T04:16:00.260Z,1.67
2023-02-02T04:18:28.380Z,1.67
2023-02-02T04:20:59.362Z,1.70
2023-02-02T04:23:27.228Z,1.33
2023-02-02T04:25:54.743Z,1.67
2023-02-02T04:28:23.891Z,1.30
2023-02-02T04:30:52.879Z,1.60
2023-02-02T04:33:21.061Z,1.30
2023-02-02T04:35:48.427Z,1.57
2023-02-02T04:38:15.711Z,1.48
2023-02-02T04:40:43.989Z,1.23
2023-02-02T04:43:11.185Z,1.23
2023-02-02T04:45:38.549Z,1.50
2023-02-02T04:48:06.455Z,1.60
2023-02-02T04:50:34.223Z,1.70
2023-02-02T04:53:01.328Z,1.35
2023-02-02T04:55:28.456Z,1.58
2023-02-02T04:57:55.652Z,1.38
2023-02-02T05:00:22.807Z,1.25
2023-02-02T05:02:50.176Z,1.40
2023-02-02T05:05:17.401Z,1.73
2023-02-02T05:07:44.586Z,1.67
2023-02-02T05:10:11.980Z,1.75
2023-02-02T05:12:39.679Z,1.40
2023-02-02T05:15:07.513Z,1.30
2023-02-02T05:17:34.888Z,1.35
2023-02-02T05:20:02.242Z,1.98
2023-02-02T05:22:29.364Z,1.40
2023-02-02T05:24:56.773Z,1.17
2023-02-02T05:27:24.121Z,1.10
2023-02-02T05:29:51.355Z,1.33
2023-02-02T05:32:18.584Z,1.88
2023-02-02T05:34:45.859Z,1.25
2023-02-02T05:37:12.925Z,1.85
2023-02-02T05:39:40.171Z,1.45
2023-02-02T05:42:07.527Z,1.20
2023-02-02T05:44:34.952Z,1.13
2023-02-02T05:47:02.335Z,1.92
2023-02-02T05:49:29.859Z,1.13
2023-02-02T05:51:57.833Z,1.85
2023-02-02T05:54:25.271Z,1.15
2023-02-02T05:56:55.876Z,1.30
2023-02-02T05:59:23.118Z,1.27
2023-02-02T06:01:50.486Z,1.13
2023-02-02T06:04:17.895Z,2.00
2023-02-02T06:06:45.707Z,1.23
2023-02-02T06:09:14.062Z,1.40
2023-02-02T06:11:43.089Z,1.55
2023-02-02T06:14:10.527Z,1.40
2023-02-02T06:16:37.676Z,1.23
2023-02-02T06:19:04.931Z,1.20
2023-02-02T06:21:32.460Z,1.38
2023-02-02T06:24:00.211Z,1.50
2023-02-02T06:26:27.704Z,1.10
2023-02-02T06:28:54.985Z,1.23
2023-02-02T06:31:23.413Z,1.25
2023-02-02T06:33:54.706Z,1.50
2023-02-02T06:36:22.235Z,2.13
2023-02-02T06:38:50.603Z,1.80
2023-02-02T06:41:18.538Z,1.33
2023-02-02T06:43:46.193Z,1.80
2023-02-02T06:46:13.376Z,1.45
2023-02-02T06:48:40.793Z,1.52
2023-02-02T06:51:08.235Z,1.60
2023-02-02T06:53:35.414Z,1.30
2023-02-02T06:56:04.352Z,2.45
2023-02-02T06:58:32.220Z,2.13
2023-02-02T07:01:04.350Z,1.75
2023-02-02T07:03:32.482Z,2.00
2023-02-02T07:05:59.639Z,1.70
2023-02-02T07:08:26.872Z,1.55
2023-02-02T07:11:13.447Z,2.10
2023-02-02T07:13:41.239Z,2.47
2023-02-02T07:16:09.676Z,1.75
2023-02-02T07:18:37.013Z,1.70
2023-02-02T07:21:04.555Z,1.80
2023-02-02T07:23:32.922Z,1.90
2023-02-02T07:26:01.738Z,1.45
2023-02-02T07:28:29.313Z,1.80
2023-02-02T07:30:56.700Z,1.90
2023-02-02T07:33:23.883Z,1.70
2023-02-02T07:35:51.113Z,1.52
2023-02-02T07:38:18.654Z,1.70
2023-02-02T07:40:46.605Z,1.98
2023-02-02T07:43:13.978Z,2.33
2023-02-02T07:45:41.463Z,2.28
2023-02-02T07:48:08.783Z,1.85
2023-02-02T07:50:35.984Z,1.98
2023-02-02T07:53:03.577Z,2.30
2023-02-02T07:55:31.333Z,2.40
2023-02-02T07:57:59.132Z,2.72
2023-02-02T08:00:26.831Z,2.35
2023-02-02T08:02:54.407Z,2.65
2023-02-02T08:05:22.928Z,2.55
2023-02-02T08:07:50.734Z,2.80
2023-02-02T08:10:18.131Z,3.30
2023-02-02T08:12:45.253Z,3.00
2023-02-02T08:15:12.552Z,2.10
2023-02-02T08:17:40.111Z,1.88
2023-02-02T08:20:07.999Z,2.38
2023-02-02T08:22:35.368Z,2.03
2023-02-02T08:25:02.530Z,2.08
2023-02-02T08:27:29.977Z,2.25
2023-02-02T08:29:57.394Z,2.83
2023-02-02T08:32:24.574Z,1.95
2023-02-02T08:34:54.680Z,1.95
2023-02-02T08:37:21.805Z,3.15
2023-02-02T08:39:49.166Z,2.88
2023-02-02T08:42:16.956Z,2.55
2023-02-02T08:46:01.275Z,2.40
2023-02-02T08:47:31.656Z,2.30
2023-02-02T08:49:58.976Z,1.90
2023-02-02T08:52:26.155Z,2.05
2023-02-02T08:54:53.838Z,1.85
2023-02-02T08:57:21.309Z,2.08
2023-02-02T08:59:48.777Z,1.85
2023-02-02T09:02:16.880Z,1.75
2023-02-02T09:04:47.035Z,6.10
2023-02-02T09:07:14.225Z,6.97
2023-02-02T09:09:41.776Z,10.02
2023-02-02T09:12:09.209Z,11.02
2023-02-02T09:14:36.424Z,7.43
2023-02-02T09:17:03.584Z,8.80
2023-02-02T09:19:30.834Z,2.80
2023-02-02T09:21:58.415Z,3.63
2023-02-02T09:24:25.731Z,13.63
2023-02-02T09:26:52.973Z,6.20
2023-02-02T09:29:20.723Z,4.95
2023-02-02T09:31:48.677Z,3.53
2023-02-02T09:34:16.003Z,2.88
2023-02-02T09:36:43.901Z,2.58
2023-02-02T09:39:12.857Z,2.72
2023-02-02T09:44:26.461Z,2.20
2023-02-02T09:46:53.823Z,2.88
2023-02-02T09:49:41.279Z,2.00
2023-02-02T09:52:13.303Z,2.33
2023-02-02T09:54:43.492Z,2.70
2023-02-02T09:57:15.167Z,2.78
2023-02-02T09:59:43.434Z,3.00
2023-02-02T10:02:22.627Z,2.47
2023-02-02T10:04:55.020Z,2.40
2023-02-02T10:07:27.187Z,2.80
2023-02-02T10:09:57.522Z,3.55
2023-02-02T10:12:27.361Z,8.15
2023-02-02T10:14:54.506Z,4.07
2023-02-02T10:17:21.865Z,2.53
2023-02-02T10:19:52.833Z,3.33
2023-02-02T10:22:22.903Z,3.65
2023-02-02T10:24:50.106Z,2.80
2023-02-02T10:27:21.653Z,2.70
2023-02-02T10:29:59.712Z,3.80
2023-02-02T10:32:47.462Z,3.03
2023-02-02T10:35:17.246Z,7.40
2023-02-02T10:37:54.256Z,4.97
2023-02-02T10:40:36.563Z,3.00
2023-02-02T10:43:40.884Z,3.30
2023-02-02T10:46:11.847Z,3.10
2023-02-02T10:48:39.396Z,2.80
2023-02-02T10:51:20.134Z,3.20
2023-02-02T10:53:51.259Z,2.67
2023-02-02T10:56:38.802Z,3.20
2023-02-02T10:59:07.774Z,3.42
2023-02-02T11:01:35.240Z,2.97
2023-02-02T11:04:20.879Z,3.97
2023-02-02T11:06:51.119Z,3.20
2023-02-02T11:09:23.273Z,3.33
2023-02-02T11:11:52.587Z,3.22
2023-02-02T11:14:30.354Z,3.53
2023-02-02T11:17:03.171Z,2.17
2023-02-02T11:19:31.691Z,2.95
2023-02-02T11:22:01.466Z,2.80
2023-02-02T11:24:37.316Z,2.83
2023-02-02T11:27:13.202Z,2.70
2023-02-02T11:29:40.671Z,5.20
2023-02-02T11:32:35.283Z,5.70
2023-02-02T11:35:02.387Z,3.10
2023-02-02T11:37:30.836Z,3.13
2023-02-02T11:40:18.876Z,4.18
2023-02-02T11:42:49.071Z,4.00
2023-02-02T11:45:18.455Z,2.92
2023-02-02T11:47:46.325Z,3.17
2023-02-02T11:50:25.566Z,3.87
2023-02-02T11:52:53.324Z,4.05
2023-02-02T11:55:26.981Z,3.22
2023-02-02T11:58:13.019Z,6.32
2023-02-02T12:00:46.103Z,3.17
2023-02-02T12:03:42.704Z,2.85
2023-02-02T12:06:23.647Z,3.67
2023-02-02T12:08:53.416Z,4.90
2023-02-02T12:11:23.988Z,3.88
2023-02-02T12:13:54.437Z,3.90
2023-02-02T12:16:21.581Z,9.52
2023-02-02T12:18:51.809Z,12.95
2023-02-02T12:21:28.194Z,12.55
2023-02-02T12:24:04.920Z,12.07
2023-02-02T12:26:34.239Z,4.85
2023-02-02T12:29:16.449Z,3.65
2023-02-02T12:31:43.695Z,4.03
2023-02-02T12:34:16.783Z,3.22
2023-02-02T12:36:46.727Z,3.10
2023-02-02T12:39:34.320Z,2.70
2023-02-02T12:42:24.934Z,2.80
2023-02-02T12:44:58.507Z,2.70
2023-02-02T12:47:44.534Z,3.08
2023-02-02T12:50:27.441Z,2.70
2023-02-02T12:53:08.887Z,3.08
2023-02-02T12:55:42.233Z,4.28
2023-02-02T12:58:21.204Z,2.95
2023-02-02T13:00:48.644Z,1.98
2023-02-02T13:03:19.692Z,2.38
2023-02-02T13:05:47.228Z,4.57
2023-02-02T13:08:30.411Z,3.40
2023-02-02T13:11:02.223Z,4.95
2023-02-02T13:13:31.620Z,4.43
2023-02-02T13:16:03.169Z,3.05
2023-02-02T13:18:32.341Z,2.70
2023-02-02T13:21:05.063Z,2.83
2023-02-02T13:23:37.192Z,2.10
2023-02-02T13:26:13.441Z,2.45
2023-02-02T13:28:47.451Z,2.40
2023-02-02T13:31:18.608Z,2.00
2023-02-02T13:33:49.951Z,4.22
2023-02-02T13:36:39.016Z,2.92
2023-02-02T13:39:14.857Z,2.13
2023-02-02T13:41:42.835Z,3.30
2023-02-02T13:44:21.141Z,2.22
2023-02-02T13:47:00.506Z,1.60
2023-02-02T13:49:34.452Z,2.55
2023-02-02T13:52:20.291Z,2.15
2023-02-02T13:54:54.565Z,2.20
2023-02-02T13:57:21.752Z,3.38
2023-02-02T14:00:00.817Z,2.13
2023-02-02T14:02:39.886Z,2.13
2023-02-02T14:05:08.028Z,2.13
2023-02-02T14:07:42.851Z,1.30
2023-02-02T14:10:26.709Z,1.73
2023-02-02T14:12:54.334Z,1.50
2023-02-02T14:15:50.790Z,1.70
2023-02-02T14:18:38.178Z,1.70
2023-02-02T14:21:05.712Z,2.72
2023-02-02T14:23:52.511Z,1.60
2023-02-02T14:26:39.385Z,1.73
2023-02-02T14:29:24.826Z,1.50
2023-02-02T14:31:53.428Z,2.22
2023-02-02T14:34:42.469Z,1.70
2023-02-02T14:37:09.758Z,1.70
2023-02-02T14:39:48.722Z,2.00
2023-02-02T14:42:34.517Z,1.52
2023-02-02T14:45:07.892Z,1.92
2023-02-02T14:47:48.984Z,2.22
2023-02-02T14:50:18.288Z,1.70
2023-02-02T14:52:45.650Z,1.80
2023-02-02T14:55:17.689Z,2.10
2023-02-02T14:57:45.179Z,1.70
2023-02-02T15:00:35.830Z,2.00
2023-02-02T15:03:21.755Z,2.47
2023-02-02T15:06:01.702Z,1.90
2023-02-02T15:08:29.674Z,1.70
2023-02-02T15:10:58.321Z,1.90
2023-02-02T15:13:27.206Z,1.67
2023-02-02T15:16:15.621Z,1.60
2023-02-02T15:18:49.173Z,1.80
2023-02-02T15:21:21.923Z,1.80
2023-02-02T15:23:49.561Z,2.70
2023-02-02T15:26:19.911Z,2.08
2023-02-02T15:28:51.480Z,2.13
2023-02-02T15:31:37.335Z,1.52
2023-02-02T15:34:10.178Z,1.30
2023-02-02T15:36:38.971Z,1.10
2023-02-02T15:39:21.470Z,1.00
2023-02-02T15:42:10.381Z,1.17
2023-02-02T15:44:38.887Z,1.15
2023-02-02T15:47:28.855Z,1.13
2023-02-02T15:49:56.272Z,1.67
2023-02-02T15:52:25.623Z,1.63
2023-02-02T15:54:54.229Z,1.60
2023-02-02T15:57:24.795Z,1.08
2023-02-02T15:59:52.311Z,1.67
2023-02-02T16:02:45.555Z,1.40
2023-02-02T16:05:38.476Z,2.95
2023-02-02T16:08:07.932Z,3.00
2023-02-02T16:13:02.571Z,1.63
2023-02-02T16:15:31.853Z,1.20
2023-02-02T16:18:03.749Z,1.38
2023-02-02T16:20:33.229Z,1.75
2023-02-02T16:23:02.289Z,4.90
2023-02-02T16:25:31.827Z,2.35
2023-02-02T16:28:03.294Z,1.33
2023-02-02T16:30:36.026Z,1.70
2023-02-02T16:33:26.564Z,1.30
2023-02-02T16:35:54.021Z,1.27
2023-02-02T16:38:24.252Z,2.08
2023-02-02T16:41:06.679Z,2.28
2023-02-02T16:43:34.598Z,3.08
2023-02-02T16:46:04.616Z,1.50
2023-02-02T16:48:33.940Z,1.55
2023-02-02T16:51:16.325Z,1.05
2023-02-02T16:53:45.133Z,1.55
2023-02-02T16:56:30.980Z,1.45
2023-02-02T16:59:00.810Z,1.35
2023-02-02T17:01:32.866Z,1.25
2023-02-02T17:04:00.500Z,1.50
2023-02-02T17:06:35.712Z,1.48
2023-02-02T17:09:24.890Z,1.65
2023-02-02T17:12:00.354Z,1.73
2023-02-02T17:14:29.914Z,1.13
2023-02-02T17:16:57.477Z,1.20
2023-02-02T17:19:28.266Z,0.90
2023-02-02T17:21:56.995Z,1.00
2023-02-02T17:24:24.676Z,1.10
2023-02-02T17:26:52.153Z,1.27
2023-02-02T17:29:21.043Z,1.00
2023-02-02T17:31:48.758Z,1.55
2023-02-02T17:34:16.488Z,1.23
2023-02-02T17:36:43.938Z,1.13
2023-02-02T17:39:11.758Z,1.00
2023-02-02T17:41:39.285Z,1.00
2023-02-02T17:44:07.008Z,1.00
2023-02-02T17:46:35.139Z,0.80
2023-02-02T17:49:03.084Z,0.70
2023-02-02T17:51:31.042Z,1.05
2023-02-02T17:54:00.457Z,0.70
2023-02-02T17:56:28.205Z,0.90
2023-02-02T17:58:55.502Z,1.02
2023-02-02T18:01:23.417Z,0.90
2023-02-02T18:03:51.200Z,0.80
2023-02-02T18:06:18.716Z,0.95
2023-02-02T18:08:46.487Z,1.08
2023-02-02T18:11:14.596Z,0.82
2023-02-02T18:13:42.929Z,1.10
2023-02-02T18:16:11.834Z,1.00
2023-02-02T18:23:35.692Z,0.93
2023-02-02T18:26:13.348Z,1.00
2023-02-02T18:28:41.283Z,0.90
2023-02-02T18:31:12.354Z,1.08
2023-02-02T18:33:41.698Z,1.00
2023-02-02T18:36:20.002Z,1.20
2023-02-02T18:38:48.597Z,0.80
2023-02-02T18:41:16.570Z,1.13
2023-02-02T18:43:45.573Z,0.93
2023-02-02T18:46:14.907Z,0.82
2023-02-02T18:48:42.992Z,1.10
2023-02-02T18:51:15.645Z,1.10
2023-02-02T18:53:46.877Z,1.25
2023-02-02T18:56:14.750Z,1.05
2023-02-02T18:58:42.407Z,1.25
2023-02-02T19:01:15.312Z,1.00
2023-02-02T19:03:47.113Z,0.90
2023-02-02T19:06:32.879Z,1.60
2023-02-02T19:09:00.476Z,0.90
2023-02-02T19:11:29.645Z,1.33
2023-02-02T19:13:59.083Z,1.27
2023-02-02T19:16:27.444Z,1.05
2023-02-02T19:18:58.570Z,1.40
2023-02-02T19:21:29.399Z,1.10
2023-02-02T19:23:57.053Z,1.00
2023-02-02T19:26:25.962Z,0.90
2023-02-02T19:31:21.106Z,1.00
2023-02-02T19:33:50.046Z,1.00
2023-02-02T19:36:21.868Z,1.27
2023-02-02T19:38:55.529Z,1.20
2023-02-02T19:41:25.437Z,1.00
2023-02-02T19:43:58.402Z,0.82
2023-02-02T19:46:27.079Z,1.20
2023-02-02T19:49:01.024Z,0.85
2023-02-02T19:51:31.170Z,1.23
2023-02-02T19:53:59.419Z,1.60
2023-02-02T19:56:27.828Z,1.20
2023-02-02T19:58:55.694Z,1.20
2023-02-02T20:01:24.257Z,0.98
2023-02-02T20:03:53.298Z,1.40
2023-02-02T20:06:24.771Z,1.05
2023-02-02T20:08:53.171Z,1.33
2023-02-02T20:11:23.928Z,1.27
2023-02-02T20:13:51.549Z,1.05
2023-02-02T20:16:20.340Z,1.10
2023-02-02T20:18:53.761Z,0.88
2023-02-02T20:21:38.423Z,1.20
2023-02-02T20:24:25.553Z,1.10
2023-02-02T20:26:54.189Z,1.50
2023-02-02T20:29:24.206Z,1.23
2023-02-02T20:31:52.784Z,1.05
2023-02-02T20:34:31.029Z,1.10
2023-02-02T20:37:18.704Z,0.80
2023-02-02T20:39:47.896Z,0.95
2023-02-02T20:42:15.397Z,1.55
2023-02-02T20:44:43.027Z,1.00
2023-02-02T20:47:10.854Z,1.20
2023-02-02T20:49:38.804Z,1.40
2023-02-02T20:52:10.668Z,1.30
2023-02-02T20:54:38.953Z,1.80
2023-02-02T20:57:06.707Z,1.58
2023-02-02T20:59:34.319Z,1.58
2023-02-02T21:02:01.833Z,1.50
2023-02-02T21:04:29.335Z,1.00
2023-02-02T21:06:59.546Z,0.80
2023-02-02T21:11:54.359Z,1.33
2023-02-02T21:14:21.778Z,1.67
2023-02-02T21:16:49.120Z,2.40
2023-02-02T21:19:16.352Z,2.00
2023-02-02T21:21:43.904Z,1.50
2023-02-02T21:24:11.499Z,1.45
2023-02-02T21:26:38.610Z,1.00
2023-02-02T21:29:06.017Z,1.00
2023-02-02T21:31:35.467Z,1.00
2023-02-02T21:34:03.096Z,1.25
2023-02-02T21:36:37.714Z,1.35
2023-02-02T21:39:05.479Z,1.55
2023-02-02T21:41:33.286Z,1.40
2023-02-02T21:44:00.789Z,1.52
2023-02-02T21:46:37.186Z,1.63
2023-02-02T21:49:05.070Z,1.27
2023-02-02T21:51:33.954Z,1.10
2023-02-02T21:54:21.411Z,0.77
2023-02-02T21:56:48.982Z,0.88
2023-02-02T21:59:17.803Z,0.90
2023-02-02T22:04:21.298Z,1.20
2023-02-02T22:06:49.966Z,1.30
2023-02-02T22:09:24.407Z,0.88
2023-02-02T22:11:59.231Z,0.93
2023-02-02T22:14:33.128Z,1.00
2023-02-02T22:17:00.267Z,1.48
2023-02-02T22:19:29.768Z,1.02
2023-02-02T22:22:23.186Z,1.17
2023-02-02T22:25:02.087Z,1.52
2023-02-02T22:27:43.009Z,1.77
2023-02-02T22:30:27.809Z,1.98
2023-02-02T22:32:55.169Z,1.77
2023-02-02T22:35:22.585Z,1.30
2023-02-02T22:37:51.409Z,1.30
2023-02-02T22:42:50.099Z,1.45
2023-02-02T22:45:17.539Z,1.70
2023-02-02T22:47:47.577Z,1.30
2023-02-02T22:50:15.712Z,1.30
2023-02-02T22:52:43.400Z,1.30
2023-02-02T22:55:11.245Z,1.10
2023-02-02T22:57:38.929Z,1.17
2023-02-02T23:00:16.595Z,1.45
2023-02-02T23:02:44.160Z,1.20
2023-02-02T23:05:12.800Z,1.38
2023-02-02T23:07:40.264Z,0.98
2023-02-02T23:10:07.938Z,1.20
2023-02-02T23:12:35.208Z,1.10
2023-02-02T23:15:02.395Z,1.23
2023-02-02T23:17:31.839Z,1.35
2023-02-02T23:19:59.180Z,1.88
2023-02-02T23:22:26.347Z,1.90
2023-02-02T23:24:53.501Z,1.23
2023-02-02T23:27:20.685Z,1.15
2023-02-02T23:29:48.240Z,1.10
2023-02-02T23:32:15.574Z,0.93
2023-02-02T23:34:42.961Z,1.48
2023-02-02T23:37:10.449Z,1.35
2023-02-02T23:39:37.938Z,1.40
2023-02-02T23:42:05.321Z,1.48
2023-02-02T23:44:32.691Z,1.60
2023-02-02T23:47:01.069Z,1.77
2023-02-02T23:49:28.472Z,1.60
2023-02-02T23:51:56.628Z,1.63
2023-02-02T23:54:24.537Z,1.25
2023-02-02T23:56:52.246Z,1.10
2023-02-02T23:59:19.638Z,1.38
